»·PEaware :: DAL434 KLAS-KPHX

DAL434 :: KLAS-KPHX

FLIGHT INFORMATION

Flight Status: Arrived
Operator:
Delta Air Lines
More flights by this operator :: More flights under this callsign
Pilot: Drew Hood (3199)
Aircraft: CANADAIR CL-600 CRJ-200
(CRJ2)
More flights by this aircraft type
Origin: KLAS McCarran Intl
United States
Destination: KPHX Phoenix Sky Harbor Intl
United States
More flights between these airports :: More routes between these airports
Route: PRFUM3 DRK MAIER MAIER5
File this flight plan on PilotEdge
Remarks:
Altitude:
(Current/Filed)
23,000ft
Speed:
(Current/Filed)
425kts
Departed: 10-Jan-17 01:16 PM
Arrived: 10-Jan-17 02:06 PM
Distance/Time
Traveled:
222nm/0:49
Distance/Time
To Go:
Arrived

Flight Plot

Page will automatically refresh every two minutes.


Map Options




Map Legend


Flown Route
Filed Route
Departure Airport
Arrival Airport
Navaid (VOR, NDB)
Fix

Horizontal Profiles

Position Reports

Time Latitude Longitude Heading Altitude Ground
Speed
10-Jan-17 12:36 36.082528 -115.153534 65 2146ft 0kts
10-Jan-17 12:37 36.082528 -115.153534 65 2146ft 0kts
10-Jan-17 12:38 36.082528 -115.153534 65 2146ft 0kts
10-Jan-17 12:39 36.082528 -115.153534 65 2146ft 0kts
10-Jan-17 12:40 36.082528 -115.153534 65 2146ft 0kts
10-Jan-17 12:41 36.082528 -115.153534 65 2146ft 0kts
10-Jan-17 12:42 36.082528 -115.153534 65 2146ft 0kts
10-Jan-17 12:43 36.082528 -115.153534 65 2146ft 0kts
10-Jan-17 12:44 36.082528 -115.153534 65 2146ft 0kts
10-Jan-17 12:45 36.082528 -115.153534 65 2146ft 0kts
10-Jan-17 12:46 36.082528 -115.153534 65 2146ft 0kts
10-Jan-17 12:47 36.082528 -115.153534 65 2146ft 0kts
10-Jan-17 12:48 36.082528 -115.153534 65 2146ft 0kts
10-Jan-17 12:49 36.082528 -115.153534 65 2146ft 0kts
10-Jan-17 12:50 36.082528 -115.153534 65 2146ft 0kts
10-Jan-17 12:51 36.082528 -115.153534 65 2146ft 0kts
10-Jan-17 12:52 36.082528 -115.153534 65 2146ft 0kts
10-Jan-17 12:53 36.082528 -115.153534 65 2146ft 0kts
10-Jan-17 12:54 36.082528 -115.153534 65 2146ft 0kts
10-Jan-17 12:55 36.082528 -115.153534 65 2146ft 0kts
10-Jan-17 12:56 36.082528 -115.153534 65 2146ft 0kts
10-Jan-17 12:57 36.082528 -115.153534 65 2146ft 0kts
10-Jan-17 12:58 36.082528 -115.153534 65 2146ft 0kts
10-Jan-17 12:59 36.082528 -115.153534 65 2146ft 0kts
10-Jan-17 13:00 36.082528 -115.153534 65 2146ft 0kts
10-Jan-17 13:01 36.082528 -115.153534 65 2146ft 0kts
10-Jan-17 13:02 36.082483 -115.153970 148 2146ft 1kts
10-Jan-17 13:03 36.082574 -115.154015 163 2146ft 0kts
10-Jan-17 13:04 36.082574 -115.154015 163 2146ft 0kts
10-Jan-17 13:05 36.082574 -115.154015 163 2146ft 0kts
10-Jan-17 13:06 36.082574 -115.154015 163 2146ft 0kts
10-Jan-17 13:07 36.081264 -115.154392 189 2146ft 11kts
10-Jan-17 13:08 36.077935 -115.152022 82 2146ft 17kts
10-Jan-17 13:09 36.077652 -115.145400 95 2146ft 16kts
10-Jan-17 13:10 36.077524 -115.141317 90 2146ft 10kts
10-Jan-17 13:11 36.077528 -115.136893 89 2146ft 15kts
10-Jan-17 13:12 36.077539 -115.130755 90 2146ft 20kts
10-Jan-17 13:13 36.077544 -115.123183 91 2146ft 23kts
10-Jan-17 13:14 36.077407 -115.121405 141 2146ft 0kts
10-Jan-17 13:15 36.076419 -115.121777 268 2146ft 14kts
10-Jan-17 13:16 36.076738 -115.164759 267 2577ft 196kts
10-Jan-17 13:17 36.074690 -115.237462 240 5374ft 202kts
10-Jan-17 13:18 36.030385 -115.271273 206 6816ft 193kts
10-Jan-17 13:19 35.981293 -115.296229 205 7051ft 187kts
10-Jan-17 13:20 35.924364 -115.282972 172 9079ft 219kts
10-Jan-17 13:21 35.868219 -115.251635 138 11342ft 246kts
10-Jan-17 13:22 35.843505 -115.167115 111 13186ft 272kts
10-Jan-17 13:23 35.823024 -115.076575 99 14974ft 283kts
10-Jan-17 13:24 35.828662 -114.977928 85 16611ft 293kts
10-Jan-17 13:25 35.836129 -114.877061 85 18080ft 302kts
10-Jan-17 13:26 35.843793 -114.772623 85 19438ft 310kts
10-Jan-17 13:27 35.851558 -114.665545 84 20692ft 319kts
10-Jan-17 13:28 35.834803 -114.561888 127 21809ft 313kts
10-Jan-17 13:29 35.788075 -114.470191 130 22900ft 319kts
10-Jan-17 13:30 35.736875 -114.373713 129 23111ft 361kts
10-Jan-17 13:31 35.679278 -114.264890 129 23116ft 403kts
10-Jan-17 13:32 35.616620 -114.147552 129 23120ft 421kts
10-Jan-17 13:33 35.551395 -114.025952 129 23120ft 436kts
10-Jan-17 13:34 35.483843 -113.900480 128 23122ft 448kts
10-Jan-17 13:35 35.414337 -113.771880 128 23123ft 457kts
10-Jan-17 13:36 35.343626 -113.641539 128 23124ft 465kts
10-Jan-17 13:37 35.271577 -113.509227 128 23126ft 471kts
10-Jan-17 13:38 35.198450 -113.375448 128 23127ft 476kts
10-Jan-17 13:39 35.125508 -113.241813 129 23121ft 480kts
10-Jan-17 13:40 35.050870 -113.106276 129 23158ft 485kts
10-Jan-17 13:41 34.975331 -112.969737 128 23184ft 489kts
10-Jan-17 13:42 34.899958 -112.833913 127 23185ft 493kts
10-Jan-17 13:43 34.823881 -112.697341 127 23186ft 495kts
10-Jan-17 13:44 34.748357 -112.562207 128 22614ft 436kts
10-Jan-17 13:45 34.678111 -112.455548 148 19234ft 396kts
10-Jan-17 13:46 34.594140 -112.374486 146 17951ft 380kts
10-Jan-17 13:47 34.513729 -112.295680 146 16542ft 372kts
10-Jan-17 13:48 34.431754 -112.223620 164 16029ft 354kts
10-Jan-17 13:49 34.338008 -112.201539 174 14905ft 342kts
10-Jan-17 13:50 34.245724 -112.178155 173 13898ft 337kts
10-Jan-17 13:51 34.155192 -112.154808 173 13030ft 329kts
10-Jan-17 13:52 34.070685 -112.139151 191 12872ft 287kts
10-Jan-17 13:53 33.990984 -112.147745 190 11636ft 286kts
10-Jan-17 13:54 33.913654 -112.156369 189 10544ft 276kts
10-Jan-17 13:55 33.840818 -112.171432 191 9079ft 265kts
10-Jan-17 13:56 33.769658 -112.186259 191 7981ft 251kts
10-Jan-17 13:57 33.702658 -112.200535 191 7035ft 243kts
10-Jan-17 13:58 33.637892 -112.214198 191 6415ft 231kts
10-Jan-17 13:59 33.579534 -112.226523 191 6015ft 204kts
10-Jan-17 14:00 33.522148 -112.238849 191 5976ft 205kts
10-Jan-17 14:01 33.466736 -112.247530 159 4492ft 201kts
10-Jan-17 14:02 33.442881 -112.194267 96 3877ft 203kts
10-Jan-17 14:03 33.440907 -112.133740 91 2915ft 164kts
10-Jan-17 14:04 33.440870 -112.079274 91 2019ft 150kts
10-Jan-17 14:05 33.440852 -112.034639 91 1310ft 129kts
10-Jan-17 14:06 33.440808 -112.014023 104 1139ft 12kts
10-Jan-17 14:07 33.439014 -112.013267 90 1139ft 14kts
10-Jan-17 14:08 33.439007 -112.009123 90 1139ft 20kts
10-Jan-17 14:09 33.439046 -112.002577 89 1139ft 14kts
10-Jan-17 14:10 33.438271 -112.001087 242 1139ft 3kts
10-Jan-17 14:11 33.438190 -112.001282 244 1139ft 0kts
10-Jan-17 14:12 33.438190 -112.001282 244 1139ft 0kts
10-Jan-17 14:13 33.438190 -112.001282 244 1139ft 0kts
10-Jan-17 14:14 33.438190 -112.001282 244 1139ft 0kts
10-Jan-17 14:15 33.438190 -112.001282 244 1139ft 0kts
10-Jan-17 14:16 33.438190 -112.001282 244 1139ft 0kts
10-Jan-17 14:17 33.438190 -112.001282 244 1139ft 0kts
10-Jan-17 14:18 33.438190 -112.001282 244 1139ft 0kts
10-Jan-17 14:19 33.438190 -112.001282 244 1139ft 0kts
10-Jan-17 14:20 33.438190 -112.001282 244 1139ft 0kts

Navigation Log

Ident Type
1. KLAS Airport
2. FIXIX Fix
3. ROPPR Fix
4. CEASR Fix
5. HITME Fix
6. WINDS Fix
7. KADDY Fix
8. PRFUM Fix
9. DRK Navaid
10. MAIER Fix
11. WEBAD Fix
12. BRUSR Fix
13. HUBUB Fix
14. HOKEY Fix
15. EDDNA Fix
16. CACTY Fix
17. KUCOO Fix
18. BELLY Fix
19. KPHX Airport